Time;durP1;ratioP1;P1;durP2;ratioP2;P2;SDS_P1;SDS_P2;PMS_P1;PMS_P2;Temp;Humidity;BMP_temperature;BMP_pressure;BME280_temperature;BME280_humidity;BME280_pressure;Samples;Min_cycle;Max_cycle;Signal;HPM_P1;HPM_P2
2023/05/14 00:01:55;;;;;;;9.77;8.87;;;14.30;99.90;;;;;;4954367;28;20583;-75
2023/05/14 00:04:22;;;;;;;13.00;9.20;;;14.20;99.90;;;;;;4971615;28;20171;-75
2023/05/14 00:06:48;;;;;;;9.48;8.48;;;14.20;99.90;;;;;;4954543;28;20722;-76
2023/05/14 00:09:13;;;;;;;9.20;8.23;;;14.20;99.90;;;;;;4954367;28;20215;-76
2023/05/14 00:11:39;;;;;;;9.30;8.50;;;14.10;99.90;;;;;;4964727;28;20686;-76
2023/05/14 00:14:05;;;;;;;12.33;11.17;;;14.10;99.90;;;;;;4967597;28;20184;-76
2023/05/14 00:16:30;;;;;;;11.43;10.03;;;14.10;99.90;;;;;;4975300;28;20168;-77
2023/05/14 00:18:56;;;;;;;11.70;10.60;;;14.10;99.90;;;;;;4975638;28;21126;-76
2023/05/14 00:21:22;;;;;;;12.50;11.30;;;14.00;99.90;;;;;;4967581;28;20263;-76
2023/05/14 00:23:48;;;;;;;11.47;10.37;;;14.00;99.90;;;;;;4956337;29;20172;-76
2023/05/14 00:26:13;;;;;;;11.13;10.03;;;14.00;99.90;;;;;;4940582;29;21160;-77
2023/05/14 00:28:42;;;;;;;10.20;9.20;;;14.00;99.90;;;;;;4922936;29;20247;-77
2023/05/14 00:31:08;;;;;;;9.80;9.03;;;14.00;99.90;;;;;;4922824;29;20576;-77
2023/05/14 00:33:34;;;;;;;11.47;10.30;;;14.00;99.90;;;;;;4938654;29;20536;-77
2023/05/14 00:35:59;;;;;;;11.03;9.90;;;14.00;99.90;;;;;;4954632;29;20176;-76
2023/05/14 00:38:27;;;;;;;9.87;8.97;;;13.90;99.90;;;;;;4954750;29;20200;-75
2023/05/14 00:40:53;;;;;;;9.75;8.85;;;13.90;99.90;;;;;;4938416;29;20598;-75
2023/05/14 00:43:19;;;;;;;9.90;8.90;;;13.90;99.90;;;;;;4922537;29;20633;-76
2023/05/14 00:45:52;;;;;;;11.18;9.13;;;13.90;99.90;;;;;;4938663;29;20180;-76
2023/05/14 00:48:19;;;;;;;11.57;9.93;;;13.80;99.90;;;;;;4938013;28;20208;-75
2023/05/14 00:50:46;;;;;;;9.18;8.27;;;13.80;99.90;;;;;;4938352;28;20206;-75
2023/05/14 00:53:12;;;;;;;9.98;8.90;;;13.80;99.90;;;;;;4930718;28;20176;-75
2023/05/14 00:55:38;;;;;;;10.95;8.50;;;13.80;99.90;;;;;;4941457;28;20184;-75
2023/05/14 00:58:08;;;;;;;9.13;8.20;;;13.80;99.90;;;;;;4957135;28;20643;-75
2023/05/14 01:00:35;;;;;;;9.60;8.70;;;13.70;99.90;;;;;;4957557;28;20583;-76
2023/05/14 01:03:02;;;;;;;10.10;9.23;;;13.70;99.90;;;;;;4958492;28;20194;-76
2023/05/14 01:05:51;;;;;;;11.48;9.10;;;13.70;99.90;;;;;;4955720;29;20525;-75
2023/05/14 01:08:24;;;;;;;11.38;8.82;;;13.70;99.90;;;;;;4937643;29;20319;-75
2023/05/14 01:11:03;;;;;;;11.68;9.30;;;13.70;99.90;;;;;;4953778;29;20222;-76
2023/05/14 01:13:51;;;;;;;9.75;8.80;;;13.60;99.90;;;;;;4949650;28;20370;-75
2023/05/14 01:16:18;;;;;;;10.25;9.30;;;13.60;99.90;;;;;;4923427;29;20212;-75
2023/05/14 01:18:47;;;;;;;10.30;9.30;;;13.50;99.90;;;;;;4930238;29;20408;-75
2023/05/14 01:21:34;;;;;;;10.13;8.70;;;13.50;99.90;;;;;;4937688;29;20180;-75
2023/05/14 01:24:00;;;;;;;10.75;9.10;;;13.50;99.90;;;;;;4921304;29;20259;-76
2023/05/14 01:26:29;;;;;;;11.15;10.15;;;13.50;99.90;;;;;;4938047;29;20185;-75
2023/05/14 01:29:16;;;;;;;11.90;10.70;;;13.50;99.90;;;;;;4921655;29;20222;-75
2023/05/14 01:31:45;;;;;;;10.38;9.48;;;13.40;99.90;;;;;;4930431;29;20300;-75
2023/05/14 01:34:12;;;;;;;10.98;9.93;;;13.40;99.90;;;;;;4937539;29;20176;-75
2023/05/14 01:36:39;;;;;;;10.65;9.60;;;13.40;99.90;;;;;;4937803;29;20176;-75
2023/05/14 01:39:08;;;;;;;11.02;9.93;;;13.40;99.90;;;;;;4921933;29;20677;-75
2023/05/14 01:41:38;;;;;;;11.25;10.20;;;13.40;99.90;;;;;;4921136;29;20234;-75
2023/05/14 01:44:04;;;;;;;10.63;9.60;;;13.40;99.90;;;;;;4953435;29;20191;-75
2023/05/14 01:46:33;;;;;;;10.55;9.55;;;13.40;99.90;;;;;;4921196;29;20183;-75
2023/05/14 01:49:01;;;;;;;10.45;9.38;;;13.40;99.90;;;;;;4921558;29;20208;-76
2023/05/14 01:51:27;;;;;;;9.60;8.70;;;13.40;99.90;;;;;;4952780;29;20613;-75
2023/05/14 01:53:53;;;;;;;9.27;8.30;;;13.40;99.90;;;;;;4937465;29;20267;-75
2023/05/14 01:56:24;;;;;;;10.43;8.77;;;13.40;99.90;;;;;;4954300;29;20186;-75
2023/05/14 01:58:50;;;;;;;11.00;9.82;;;13.40;99.90;;;;;;4942850;28;20203;-75
2023/05/14 02:01:15;;;;;;;8.83;8.03;;;13.30;99.90;;;;;;4947895;28;20179;-75
2023/05/14 02:03:41;;;;;;;8.87;7.97;;;13.30;99.90;;;;;;4945151;29;20271;-75
2023/05/14 02:06:07;;;;;;;9.40;7.67;;;13.30;99.90;;;;;;4917598;29;20596;-76
2023/05/14 02:08:33;;;;;;;9.33;8.50;;;13.30;99.90;;;;;;4935101;29;20205;-75
2023/05/14 02:10:58;;;;;;;7.73;6.77;;;13.30;99.90;;;;;;4902236;29;20219;-75
2023/05/14 02:13:25;;;;;;;8.52;7.65;;;13.30;99.90;;;;;;4933028;29;20668;-76
2023/05/14 02:15:51;;;;;;;8.70;7.35;;;13.30;99.90;;;;;;4918550;29;20623;-75
2023/05/14 02:18:16;;;;;;;9.77;8.30;;;13.30;99.90;;;;;;4934721;29;20268;-75
2023/05/14 02:20:42;;;;;;;8.10;7.30;;;13.20;99.90;;;;;;4919727;29;20638;-75
2023/05/14 02:23:08;;;;;;;8.70;7.90;;;13.20;99.90;;;;;;4930243;28;20679;-76
2023/05/14 02:25:34;;;;;;;8.80;7.30;;;13.20;99.90;;;;;;4921227;29;20215;-77
2023/05/14 02:27:59;;;;;;;8.27;7.33;;;13.20;99.90;;;;;;4904838;29;20631;-77
2023/05/14 02:30:25;;;;;;;9.10;7.67;;;13.20;99.90;;;;;;4953984;29;20647;-76
2023/05/14 02:32:51;;;;;;;9.20;8.40;;;13.20;99.90;;;;;;4920236;29;20180;-77
2023/05/14 02:35:16;;;;;;;10.17;8.70;;;13.10;99.90;;;;;;4936430;29;20955;-76
2023/05/14 02:37:42;;;;;;;9.30;8.43;;;13.10;99.90;;;;;;4937127;29;20179;-76
2023/05/14 02:40:08;;;;;;;11.23;10.10;;;13.10;99.90;;;;;;4920676;29;20202;-77
2023/05/14 02:42:34;;;;;;;9.80;8.45;;;13.10;99.90;;;;;;4920361;29;20223;-76
2023/05/14 02:45:00;;;;;;;9.60;8.30;;;13.10;99.90;;;;;;4936096;29;20176;-77
2023/05/14 02:47:25;;;;;;;7.70;6.90;;;13.10;99.90;;;;;;4953955;29;20255;-76
2023/05/14 02:49:51;;;;;;;9.47;7.63;;;13.10;99.90;;;;;;4920210;29;20208;-77
2023/05/14 02:52:17;;;;;;;7.97;7.17;;;13.10;99.90;;;;;;4922304;29;20216;-76
2023/05/14 02:54:43;;;;;;;8.23;7.40;;;13.10;99.90;;;;;;4937675;29;20568;-76
2023/05/14 02:57:08;;;;;;;9.33;8.40;;;13.10;99.90;;;;;;4936489;29;20215;-77
2023/05/14 02:59:35;;;;;;;9.13;8.33;;;13.10;99.90;;;;;;4953097;29;20208;-77
2023/05/14 03:02:00;;;;;;;8.75;7.95;;;13.00;99.90;;;;;;4936172;29;20188;-77
2023/05/14 03:04:26;;;;;;;10.00;9.00;;;13.00;99.90;;;;;;4936263;29;20238;-76
2023/05/14 03:06:52;;;;;;;9.80;8.80;;;13.00;99.90;;;;;;4936091;29;20621;-77
2023/05/14 03:09:18;;;;;;;9.17;8.17;;;13.00;99.90;;;;;;4920432;29;20199;-76
2023/05/14 03:11:44;;;;;;;7.55;6.95;;;13.00;99.90;;;;;;4935156;29;20214;-76
2023/05/14 03:14:10;;;;;;;10.00;9.20;;;12.90;99.90;;;;;;4936000;29;20180;-76
2023/05/14 03:16:36;;;;;;;12.10;7.73;;;12.90;99.90;;;;;;4952868;29;21155;-76
2023/05/14 03:19:01;;;;;;;8.13;7.20;;;12.90;99.90;;;;;;4960641;28;20229;-76
2023/05/14 03:21:28;;;;;;;8.85;7.97;;;12.90;99.90;;;;;;4957381;28;20179;-77
2023/05/14 03:23:54;;;;;;;8.40;7.60;;;12.90;99.90;;;;;;4907797;28;20183;-76
2023/05/14 03:26:20;;;;;;;10.93;9.83;;;12.90;99.90;;;;;;4947563;28;20260;-76
2023/05/14 03:28:46;;;;;;;7.63;6.95;;;12.80;99.90;;;;;;4946918;28;20226;-76
2023/05/14 03:31:11;;;;;;;8.57;7.60;;;12.80;99.90;;;;;;4946366;28;20821;-76
2023/05/14 03:33:37;;;;;;;8.23;7.30;;;12.80;99.90;;;;;;4925750;28;20182;-76
2023/05/14 03:36:04;;;;;;;7.30;6.60;;;12.80;99.90;;;;;;4964168;28;20183;-76
2023/05/14 03:38:30;;;;;;;7.85;6.78;;;12.80;99.90;;;;;;4936321;28;20200;-76
2023/05/14 03:40:56;;;;;;;8.30;7.53;;;12.80;99.90;;;;;;4964133;28;20632;-76
2023/05/14 03:43:22;;;;;;;10.70;7.85;;;12.80;99.90;;;;;;4946602;28;20240;-76
2023/05/14 03:45:51;;;;;;;8.45;7.65;;;12.70;99.90;;;;;;4938852;28;20183;-76
2023/05/14 03:48:18;;;;;;;8.65;6.88;;;12.70;99.90;;;;;;4949459;28;20262;-76
2023/05/14 03:50:44;;;;;;;9.35;6.60;;;12.70;99.90;;;;;;4958987;28;20277;-76
2023/05/14 03:53:10;;;;;;;6.93;6.32;;;12.60;99.90;;;;;;4957955;28;20175;-76
2023/05/14 03:55:36;;;;;;;8.77;7.97;;;12.60;99.90;;;;;;4958738;28;20179;-76
2023/05/14 03:58:09;;;;;;;7.30;6.60;;;12.60;99.90;;;;;;4958246;28;20267;-76
2023/05/14 04:00:35;;;;;;;8.13;7.10;;;12.60;99.90;;;;;;4926984;28;20262;-76
2023/05/14 04:03:02;;;;;;;7.20;6.60;;;12.60;99.90;;;;;;4974083;28;20180;-76
2023/05/14 04:05:28;;;;;;;7.80;7.10;;;12.60;99.90;;;;;;4958483;28;20182;-76
2023/05/14 04:07:54;;;;;;;8.03;7.23;;;12.50;99.90;;;;;;4960916;28;20636;-76
2023/05/14 04:10:19;;;;;;;7.00;6.40;;;12.50;99.90;;;;;;4957937;28;20215;-76
2023/05/14 04:12:45;;;;;;;8.40;6.30;;;12.50;99.90;;;;;;4958261;28;20175;-76
2023/05/14 04:15:11;;;;;;;7.50;6.80;;;12.50;99.90;;;;;;4964987;28;20594;-76
2023/05/14 04:17:37;;;;;;;7.40;6.53;;;12.50;99.90;;;;;;4942407;28;20172;-76
2023/05/14 04:20:03;;;;;;;8.57;7.00;;;12.50;99.90;;;;;;4957942;28;20262;-76
2023/05/14 04:22:29;;;;;;;7.30;6.70;;;12.60;99.90;;;;;;4925759;29;20177;-76
2023/05/14 04:24:54;;;;;;;7.43;6.53;;;12.60;99.90;;;;;;4938732;29;20208;-76
2023/05/14 04:27:21;;;;;;;8.43;7.27;;;12.60;99.90;;;;;;4954912;29;20223;-76
2023/05/14 04:29:47;;;;;;;6.40;5.80;;;12.60;99.90;;;;;;4938533;29;20188;-76
2023/05/14 04:32:13;;;;;;;9.38;6.13;;;12.60;99.90;;;;;;4922648;29;20231;-79
2023/05/14 04:34:40;;;;;;;6.40;5.87;;;12.60;99.90;;;;;;4956132;29;20211;-80
2023/05/14 04:37:05;;;;;;;7.57;6.80;;;12.60;99.90;;;;;;4938363;29;20580;-79
2023/05/14 04:39:31;;;;;;;7.23;6.50;;;12.70;99.90;;;;;;4938873;29;20266;-79
2023/05/14 04:41:57;;;;;;;8.77;7.90;;;12.80;99.90;;;;;;4955499;29;20579;-79
2023/05/14 04:44:22;;;;;;;8.00;7.30;;;12.80;99.90;;;;;;4943711;29;20172;-79
2023/05/14 04:46:48;;;;;;;7.20;6.47;;;12.80;99.90;;;;;;4938415;29;20649;-80
2023/05/14 04:49:14;;;;;;;7.07;6.40;;;12.90;99.90;;;;;;4955925;28;20634;-80
2023/05/14 04:51:40;;;;;;;7.07;6.37;;;13.00;99.90;;;;;;4937874;29;20215;-79
2023/05/14 04:54:05;;;;;;;8.32;7.53;;;13.10;99.90;;;;;;4955733;29;20172;-79
2023/05/14 04:56:31;;;;;;;6.70;6.10;;;13.10;99.90;;;;;;4938036;29;20176;-79
2023/05/14 04:58:57;;;;;;;7.67;7.03;;;13.10;99.90;;;;;;4955732;28;20630;-77
2023/05/14 05:01:22;;;;;;;7.60;6.30;;;13.20;99.90;;;;;;4938064;29;20300;-76
2023/05/14 05:03:49;;;;;;;8.65;7.35;;;13.20;99.90;;;;;;4955176;29;20183;-76
2023/05/14 05:06:15;;;;;;;6.83;6.23;;;13.30;99.90;;;;;;4938437;29;20633;-76
2023/05/14 05:08:41;;;;;;;7.40;6.70;;;13.40;99.90;;;;;;4937968;29;20623;-76
2023/05/14 05:11:06;;;;;;;8.40;7.70;;;13.50;99.90;;;;;;4962916;28;20207;-76
2023/05/14 05:13:32;;;;;;;7.07;6.40;;;13.60;99.90;;;;;;4966388;28;20673;-76
2023/05/14 05:15:58;;;;;;;6.60;5.83;;;13.70;99.90;;;;;;4973595;28;20219;-76
2023/05/14 05:18:23;;;;;;;9.97;9.00;;;13.80;99.90;;;;;;4974681;28;20676;-75
2023/05/14 05:20:49;;;;;;;6.47;5.63;;;13.80;99.90;;;;;;4959911;28;20180;-74
2023/05/14 05:23:15;;;;;;;7.20;6.60;;;13.90;99.90;;;;;;4937894;29;20176;-76
2023/05/14 05:25:40;;;;;;;6.80;6.20;;;14.00;99.90;;;;;;4955680;29;20227;-74
2023/05/14 05:28:06;;;;;;;8.10;7.30;;;14.20;99.90;;;;;;4937917;29;20180;-76
2023/05/14 05:30:32;;;;;;;6.77;6.13;;;14.50;99.90;;;;;;4937911;29;20669;-76
2023/05/14 05:32:58;;;;;;;7.57;6.83;;;15.00;99.90;;;;;;4954854;29;20200;-77
2023/05/14 05:35:23;;;;;;;8.07;7.27;;;15.50;99.90;;;;;;4954814;29;21349;-76
2023/05/14 05:37:49;;;;;;;7.57;6.97;;;16.00;99.90;;;;;;4955131;29;20157;-77
2023/05/14 05:40:15;;;;;;;5.77;5.30;;;16.50;99.90;;;;;;4954626;29;20235;-77
2023/05/14 05:42:41;;;;;;;7.47;6.77;;;17.10;99.90;;;;;;4954523;29;20168;-77
2023/05/14 05:45:07;;;;;;;9.57;6.40;;;17.60;99.90;;;;;;4953275;29;20210;-77
2023/05/14 05:47:33;;;;;;;6.83;6.20;;;18.30;99.90;;;;;;4955052;29;20660;-77
2023/05/14 05:49:59;;;;;;;6.47;5.80;;;19.20;99.90;;;;;;4954091;28;20643;-77
2023/05/14 05:52:24;;;;;;;6.70;5.33;;;20.10;99.90;;;;;;4954368;29;20623;-77
2023/05/14 05:54:50;;;;;;;5.63;4.40;;;21.00;99.90;;;;;;4953154;29;20176;-77
2023/05/14 05:57:16;;;;;;;6.03;5.53;;;21.70;99.90;;;;;;4953543;29;20211;-77
2023/05/14 05:59:42;;;;;;;4.87;4.03;;;22.30;99.90;;;;;;4937461;29;20203;-77
2023/05/14 06:02:08;;;;;;;5.73;5.23;;;22.90;99.90;;;;;;4936412;29;20552;-77
2023/05/14 06:04:33;;;;;;;5.00;4.50;;;23.30;99.90;;;;;;4937075;29;20943;-75
2023/05/14 06:06:59;;;;;;;5.70;5.13;;;23.60;99.90;;;;;;4951316;28;20656;-75
2023/05/14 06:09:25;;;;;;;5.73;5.13;;;24.00;99.90;;;;;;4964711;28;20191;-77
2023/05/14 06:11:50;;;;;;;4.87;4.47;;;24.50;99.90;;;;;;4972874;28;20204;-77
2023/05/14 06:14:16;;;;;;;6.20;5.70;;;24.90;99.90;;;;;;4956005;28;20242;-77
2023/05/14 06:16:42;;;;;;;5.13;4.73;;;25.30;99.90;;;;;;4973241;28;20234;-77
2023/05/14 06:19:07;;;;;;;5.80;4.83;;;25.70;99.90;;;;;;4956072;28;20195;-77
2023/05/14 06:21:33;;;;;;;5.50;5.00;;;26.00;99.90;;;;;;4963567;28;20680;-77
2023/05/14 06:23:59;;;;;;;5.43;4.93;;;26.20;99.90;;;;;;4954201;29;20179;-77
2023/05/14 06:26:25;;;;;;;6.60;6.00;;;26.40;99.90;;;;;;4953958;29;20219;-77
2023/05/14 06:28:51;;;;;;;6.60;6.00;;;26.80;99.90;;;;;;4953612;29;20207;-77
2023/05/14 06:31:17;;;;;;;6.20;5.70;;;27.30;99.90;;;;;;4953558;29;20632;-77
2023/05/14 06:33:44;;;;;;;7.97;7.17;;;27.80;99.90;;;;;;4952433;29;20247;-75
2023/05/14 06:36:09;;;;;;;7.17;6.57;;;27.90;99.90;;;;;;4953884;29;20584;-75
2023/05/14 06:38:35;;;;;;;6.40;5.90;;;28.10;99.90;;;;;;4936179;29;20608;-75
2023/05/14 06:41:01;;;;;;;7.03;6.00;;;28.40;99.90;;;;;;4953733;29;20234;-75
2023/05/14 06:43:27;;;;;;;5.37;4.97;;;28.80;99.90;;;;;;4935508;29;20658;-75
2023/05/14 06:45:53;;;;;;;4.93;4.50;;;29.00;99.90;;;;;;4936522;29;20176;-75
2023/05/14 06:48:20;;;;;;;5.53;5.13;;;29.20;99.90;;;;;;4953049;28;20651;-75
2023/05/14 06:50:47;;;;;;;5.80;5.30;;;29.40;99.90;;;;;;4936284;29;20730;-75
2023/05/14 06:53:13;;;;;;;6.60;5.20;;;29.50;99.90;;;;;;4952826;29;20586;-75
2023/05/14 06:55:38;;;;;;;6.47;5.87;;;29.50;99.90;;;;;;4953581;29;20921;-75
2023/05/14 06:58:08;;;;;;;5.90;5.50;;;29.50;99.90;;;;;;4936261;29;20588;-75
2023/05/14 07:00:33;;;;;;;7.97;6.83;;;29.60;99.90;;;;;;4935840;29;20195;-75
2023/05/14 07:02:59;;;;;;;5.57;5.17;;;29.90;99.20;;;;;;4943091;28;20711;-75
2023/05/14 07:05:26;;;;;;;5.03;4.57;;;30.30;99.30;;;;;;4964305;28;20534;-75
2023/05/14 07:07:52;;;;;;;6.23;5.73;;;30.80;99.10;;;;;;4939405;28;20680;-75
2023/05/14 07:10:18;;;;;;;6.47;5.60;;;31.10;97.30;;;;;;4970750;28;20230;-75
2023/05/14 07:12:44;;;;;;;5.90;5.30;;;31.40;96.50;;;;;;4972288;28;20177;-75
2023/05/14 07:15:11;;;;;;;5.23;4.33;;;31.60;96.10;;;;;;4972006;28;20200;-75
2023/05/14 07:17:36;;;;;;;4.87;4.40;;;32.10;95.30;;;;;;4971324;28;20596;-75
2023/05/14 07:20:02;;;;;;;4.57;4.17;;;32.30;93.90;;;;;;4954592;28;21471;-75
2023/05/14 07:22:28;;;;;;;6.47;4.77;;;32.60;93.20;;;;;;4944098;29;20205;-75
2023/05/14 07:24:54;;;;;;;5.33;4.83;;;33.10;92.30;;;;;;4936002;29;20604;-76
2023/05/14 07:27:19;;;;;;;5.47;4.27;;;33.50;91.40;;;;;;4952931;29;20172;-75
2023/05/14 07:29:45;;;;;;;5.60;3.93;;;33.80;90.10;;;;;;4935808;29;20199;-75
2023/05/14 07:32:11;;;;;;;4.30;3.90;;;34.30;89.00;;;;;;4919315;29;20623;-75
2023/05/14 07:34:37;;;;;;;3.93;3.63;;;34.60;86.70;;;;;;4951843;29;20191;-74
2023/05/14 07:37:03;;;;;;;4.80;3.63;;;35.00;84.20;;;;;;4951427;29;20613;-74
2023/05/14 07:39:28;;;;;;;3.70;2.93;;;35.00;79.60;;;;;;4952911;29;20200;-74
2023/05/14 07:41:54;;;;;;;3.80;3.50;;;34.80;76.70;;;;;;4952284;29;20580;-74
2023/05/14 07:44:20;;;;;;;3.80;3.50;;;34.60;75.20;;;;;;4920158;29;20185;-74
2023/05/14 07:46:46;;;;;;;4.00;3.27;;;34.70;74.30;;;;;;4919465;29;20188;-74
2023/05/14 07:49:12;;;;;;;4.00;3.57;;;34.90;73.00;;;;;;4951733;28;20735;-74
2023/05/14 07:51:38;;;;;;;3.60;3.30;;;35.10;71.80;;;;;;4952139;29;20635;-75
2023/05/14 07:54:03;;;;;;;4.78;3.45;;;35.30;71.20;;;;;;4952768;29;21024;-74
2023/05/14 07:56:29;;;;;;;3.43;2.93;;;35.60;69.80;;;;;;4952957;29;20176;-74
2023/05/14 07:58:55;;;;;;;3.87;2.80;;;35.90;69.10;;;;;;4941865;28;20359;-74
2023/05/14 08:01:21;;;;;;;3.67;2.53;;;36.20;67.80;;;;;;4946248;28;20179;-75
2023/05/14 08:03:47;;;;;;;2.73;2.20;;;36.50;66.80;;;;;;4971732;28;20171;-75
2023/05/14 08:06:12;;;;;;;2.97;2.77;;;36.80;65.40;;;;;;4972197;28;20182;-75
2023/05/14 08:08:38;;;;;;;3.23;2.97;;;37.00;63.40;;;;;;4970057;28;20199;-75
2023/05/14 08:11:04;;;;;;;4.20;3.10;;;37.10;60.70;;;;;;4938422;28;20215;-75
2023/05/14 08:13:30;;;;;;;5.30;2.80;;;36.90;58.60;;;;;;4953744;28;20920;-75
2023/05/14 08:15:56;;;;;;;3.90;2.90;;;36.90;58.50;;;;;;4971891;28;20171;-75
2023/05/14 08:18:22;;;;;;;3.50;3.07;;;36.60;57.80;;;;;;4954176;28;20575;-75
2023/05/14 08:20:48;;;;;;;3.60;3.00;;;36.50;57.10;;;;;;4951461;28;20188;-75
2023/05/14 08:23:14;;;;;;;4.40;3.40;;;36.50;56.70;;;;;;4951189;29;20272;-75
2023/05/14 08:25:39;;;;;;;2.87;2.57;;;36.40;56.20;;;;;;4935083;29;20267;-75
2023/05/14 08:28:06;;;;;;;3.50;2.90;;;36.50;56.80;;;;;;4935276;29;20586;-75
2023/05/14 08:30:32;;;;;;;2.60;2.37;;;36.80;56.50;;;;;;4934779;29;20211;-76
2023/05/14 08:32:58;;;;;;;2.87;2.57;;;37.10;56.30;;;;;;4952092;28;21029;-75
2023/05/14 08:35:24;;;;;;;2.60;1.97;;;37.40;55.70;;;;;;4957960;28;20198;-76
2023/05/14 08:37:51;;;;;;;3.13;2.23;;;37.30;54.50;;;;;;4966589;28;20259;-76
2023/05/14 08:40:17;;;;;;;2.60;2.40;;;37.30;54.60;;;;;;4973215;28;20191;-75
2023/05/14 08:42:43;;;;;;;2.50;1.80;;;37.50;53.50;;;;;;4957640;28;20579;-76
2023/05/14 08:45:18;;;;;;;3.00;1.90;;;37.60;52.80;;;;;;4957329;28;20586;-75
2023/05/14 08:47:51;;;;;;;3.23;2.10;;;37.40;50.50;;;;;;4957706;28;21141;-76
2023/05/14 08:50:18;;;;;;;2.30;1.73;;;36.80;49.60;;;;;;4956993;28;20639;-76
2023/05/14 08:52:44;;;;;;;3.03;1.80;;;36.60;50.10;;;;;;4957286;28;20590;-75
2023/05/14 08:55:11;;;;;;;2.00;1.50;;;36.60;50.30;;;;;;4934777;28;21174;-76
2023/05/14 08:57:37;;;;;;;2.23;1.53;;;36.80;50.20;;;;;;4949323;28;20583;-75
2023/05/14 09:00:07;;;;;;;2.90;1.60;;;37.00;50.40;;;;;;4941637;28;20609;-75
2023/05/14 09:02:34;;;;;;;2.77;1.70;;;37.30;50.30;;;;;;4974127;28;20579;-76
2023/05/14 09:05:01;;;;;;;3.70;2.63;;;37.70;50.50;;;;;;4956633;28;20715;-75
2023/05/14 09:07:27;;;;;;;2.83;2.53;;;37.50;45.70;;;;;;4974377;28;20571;-75
2023/05/14 09:09:53;;;;;;;2.83;1.50;;;38.10;47.90;;;;;;4957476;28;20642;-75
2023/05/14 09:12:20;;;;;;;3.10;1.97;;;38.50;47.90;;;;;;4973737;28;20721;-76
2023/05/14 09:14:47;;;;;;;2.27;1.67;;;38.90;47.90;;;;;;4941271;28;20599;-75
2023/05/14 09:17:14;;;;;;;6.53;1.40;;;39.20;47.50;;;;;;4974412;28;20575;-75
2023/05/14 09:19:40;;;;;;;2.67;1.10;;;39.50;47.20;;;;;;4957106;28;20611;-76
2023/05/14 09:22:12;;;;;;;2.17;1.53;;;39.70;47.10;;;;;;4943145;29;20580;-75
2023/05/14 09:24:38;;;;;;;1.90;1.40;;;40.00;45.70;;;;;;4937951;29;20580;-75
2023/05/14 09:27:05;;;;;;;1.80;1.37;;;40.10;45.50;;;;;;4955397;29;20575;-75
2023/05/14 09:29:32;;;;;;;1.53;1.27;;;40.20;45.10;;;;;;4937527;29;20608;-74
2023/05/14 09:32:01;;;;;;;1.80;1.43;;;40.40;44.80;;;;;;4937524;29;20631;-74
2023/05/14 09:34:29;;;;;;;2.20;1.60;;;40.40;44.00;;;;;;4954491;29;20611;-75
2023/05/14 09:37:06;;;;;;;2.80;2.03;;;40.30;43.40;;;;;;4953933;29;20572;-75
2023/05/14 09:39:33;;;;;;;3.30;1.67;;;40.20;42.30;;;;;;4937223;29;20619;-75
2023/05/14 09:41:59;;;;;;;4.70;2.67;;;40.10;42.70;;;;;;4954494;29;21121;-75
2023/05/14 09:44:26;;;;;;;4.77;1.73;;;40.10;42.80;;;;;;4956718;28;20643;-74
2023/05/14 09:46:53;;;;;;;1.80;1.40;;;40.10;42.90;;;;;;4956005;29;20176;-75
2023/05/14 09:49:19;;;;;;;2.20;2.00;;;40.20;43.10;;;;;;4937477;29;21191;-75
2023/05/14 09:51:44;;;;;;;2.77;1.40;;;40.20;42.50;;;;;;4926416;28;20646;-75
2023/05/14 09:54:11;;;;;;;2.87;2.03;;;40.30;42.50;;;;;;4964624;28;21417;-75
2023/05/14 09:56:38;;;;;;;2.53;1.83;;;40.40;42.40;;;;;;4934177;28;20175;-75
2023/05/14 09:59:04;;;;;;;4.27;2.30;;;40.30;41.60;;;;;;4956634;28;20618;-75
2023/05/14 10:01:31;;;;;;;2.97;1.90;;;40.20;41.20;;;;;;4956284;28;20670;-75
2023/05/14 10:03:57;;;;;;;2.30;1.97;;;40.10;41.30;;;;;;4956748;28;20641;-76
2023/05/14 10:06:33;;;;;;;2.70;2.40;;;40.10;41.90;;;;;;4956234;28;20742;-75
2023/05/14 10:09:02;;;;;;;3.30;2.90;;;40.10;41.30;;;;;;4940731;28;20677;-76
2023/05/14 10:11:31;;;;;;;2.93;2.10;;;40.10;41.30;;;;;;4955777;28;20685;-75
2023/05/14 10:14:01;;;;;;;3.97;2.17;;;40.20;41.20;;;;;;4956116;28;20582;-75
2023/05/14 10:16:30;;;;;;;2.93;2.10;;;40.20;41.20;;;;;;4973341;28;20571;-75
2023/05/14 10:19:02;;;;;;;3.17;2.27;;;40.30;41.50;;;;;;4956066;28;20610;-75
2023/05/14 10:21:30;;;;;;;2.40;2.20;;;40.30;40.50;;;;;;4947330;29;20984;-75
2023/05/14 10:23:56;;;;;;;2.83;1.93;;;40.20;40.00;;;;;;4937080;29;20596;-75
2023/05/14 10:26:23;;;;;;;2.43;2.07;;;40.00;40.10;;;;;;4953681;29;20745;-75
2023/05/14 10:28:49;;;;;;;2.93;2.37;;;39.90;39.90;;;;;;4955828;29;20615;-75
2023/05/14 10:31:14;;;;;;;2.53;2.30;;;39.90;40.00;;;;;;4945983;29;20655;-75
2023/05/14 10:33:49;;;;;;;5.13;2.40;;;39.80;40.00;;;;;;4962327;29;20196;-75
2023/05/14 10:36:16;;;;;;;2.70;1.90;;;39.90;39.70;;;;;;4940532;29;20203;-75
2023/05/14 10:38:42;;;;;;;3.80;2.57;;;39.80;39.80;;;;;;4936669;29;20620;-75
2023/05/14 10:41:16;;;;;;;2.50;2.30;;;39.50;39.10;;;;;;4953505;29;20959;-75
2023/05/14 10:43:43;;;;;;;2.30;2.10;;;38.90;38.10;;;;;;4951921;29;20224;-75
2023/05/14 10:46:11;;;;;;;5.63;2.40;;;38.20;38.00;;;;;;4936595;29;20603;-75
2023/05/14 10:48:41;;;;;;;4.00;2.57;;;37.70;38.40;;;;;;4943184;28;21065;-75
2023/05/14 10:51:09;;;;;;;3.27;2.37;;;37.30;38.70;;;;;;4952540;28;20634;-75
2023/05/14 10:53:41;;;;;;;2.20;2.00;;;36.90;39.30;;;;;;4954749;28;20587;-75
2023/05/14 10:56:09;;;;;;;2.73;2.40;;;36.70;39.30;;;;;;4955243;28;20583;-75
2023/05/14 10:58:43;;;;;;;3.43;3.13;;;36.60;39.80;;;;;;4938947;28;20646;-75
2023/05/14 11:01:10;;;;;;;3.63;2.40;;;36.40;39.50;;;;;;4955192;28;20641;-75
2023/05/14 11:03:44;;;;;;;3.23;2.93;;;36.30;40.00;;;;;;4954812;28;20578;-76
2023/05/14 11:06:12;;;;;;;3.33;3.03;;;36.20;40.40;;;;;;4955365;28;20567;-75
2023/05/14 11:08:38;;;;;;;3.73;3.43;;;36.10;40.60;;;;;;4954805;28;20669;-76
2023/05/14 11:11:05;;;;;;;4.83;4.10;;;36.10;40.80;;;;;;4955358;28;20626;-76
2023/05/14 11:13:33;;;;;;;3.83;3.53;;;36.10;41.10;;;;;;4971928;28;20587;-75
2023/05/14 11:16:00;;;;;;;3.30;3.00;;;36.10;41.20;;;;;;4954928;28;20590;-76
2023/05/14 11:18:32;;;;;;;5.43;3.53;;;36.20;41.60;;;;;;4972437;28;20615;-76
2023/05/14 11:21:01;;;;;;;6.80;3.10;;;36.30;41.30;;;;;;4915536;29;20644;-75
2023/05/14 11:23:27;;;;;;;2.87;2.37;;;36.30;40.60;;;;;;4950353;29;20590;-76
2023/05/14 11:25:54;;;;;;;3.10;2.63;;;36.30;40.30;;;;;;4919881;29;20580;-75
2023/05/14 11:28:25;;;;;;;2.87;2.37;;;36.30;40.10;;;;;;4951815;29;20168;-75
2023/05/14 11:30:52;;;;;;;3.20;2.70;;;36.20;40.00;;;;;;4953423;29;20588;-75
2023/05/14 11:33:18;;;;;;;3.37;2.70;;;36.00;39.40;;;;;;4935604;29;20989;-76
2023/05/14 11:35:45;;;;;;;2.83;2.37;;;35.60;39.20;;;;;;4952552;29;20580;-75
2023/05/14 11:38:18;;;;;;;4.37;3.70;;;35.30;39.30;;;;;;4935703;29;20595;-75
2023/05/14 11:40:55;;;;;;;3.90;3.30;;;34.60;39.20;;;;;;4935301;29;20737;-75
2023/05/14 11:43:23;;;;;;;3.30;2.77;;;34.00;39.40;;;;;;4937536;28;20619;-75
2023/05/14 11:45:53;;;;;;;3.30;2.57;;;33.30;39.40;;;;;;4963721;28;20586;-75
2023/05/14 11:48:19;;;;;;;5.30;3.30;;;32.70;39.80;;;;;;4971943;28;20934;-75
2023/05/14 11:50:48;;;;;;;3.70;3.30;;;32.10;39.70;;;;;;4954794;28;20598;-75
2023/05/14 11:53:28;;;;;;;4.20;3.30;;;31.60;40.40;;;;;;4954403;28;20619;-75
2023/05/14 11:55:56;;;;;;;3.87;2.70;;;31.10;40.70;;;;;;4954794;28;21151;-75
2023/05/14 11:58:22;;;;;;;4.03;3.30;;;30.70;41.10;;;;;;4954402;28;20580;-75
2023/05/14 12:00:54;;;;;;;5.97;3.80;;;30.30;41.50;;;;;;4971927;28;20753;-75
2023/05/14 12:03:28;;;;;;;3.97;3.57;;;30.00;41.90;;;;;;4971305;28;20587;-75
2023/05/14 12:05:58;;;;;;;5.93;3.33;;;29.80;42.30;;;;;;4954591;28;21209;-75
2023/05/14 12:08:29;;;;;;;4.40;3.10;;;29.60;43.00;;;;;;4956295;28;20595;-75
2023/05/14 12:10:57;;;;;;;4.13;3.50;;;29.60;43.80;;;;;;4958433;28;20579;-75
2023/05/14 12:13:28;;;;;;;3.60;3.13;;;29.70;44.00;;;;;;4957521;28;20985;-75
2023/05/14 12:15:59;;;;;;;5.80;2.93;;;29.70;44.50;;;;;;4958348;28;21122;-75
2023/05/14 12:18:27;;;;;;;3.67;3.37;;;29.70;43.20;;;;;;4957769;28;20582;-75
2023/05/14 12:20:53;;;;;;;3.33;3.03;;;29.60;43.00;;;;;;4970682;28;20626;-74
2023/05/14 12:23:26;;;;;;;4.37;2.80;;;29.40;42.70;;;;;;4941801;29;20594;-75
2023/05/14 12:25:52;;;;;;;4.47;3.10;;;29.30;42.90;;;;;;4939165;29;20259;-74
2023/05/14 12:28:18;;;;;;;3.00;2.70;;;29.20;43.00;;;;;;4954413;29;20589;-74
2023/05/14 12:30:46;;;;;;;3.90;2.33;;;29.10;43.10;;;;;;4956245;29;20179;-75
2023/05/14 12:33:13;;;;;;;3.50;2.47;;;29.00;43.00;;;;;;4955840;29;20590;-75
2023/05/14 12:35:39;;;;;;;3.40;2.30;;;28.80;42.80;;;;;;4938583;29;21133;-75
2023/05/14 12:38:05;;;;;;;2.40;1.63;;;28.60;42.40;;;;;;4956126;29;20569;-74
2023/05/14 12:40:31;;;;;;;2.77;1.90;;;28.40;42.10;;;;;;4958958;28;20674;-74
2023/05/14 12:42:57;;;;;;;2.53;1.33;;;28.30;41.60;;;;;;4966905;28;21128;-74
2023/05/14 12:45:23;;;;;;;2.97;1.50;;;28.10;41.50;;;;;;4973573;28;20218;-74